Time;durP1;ratioP1;P1;durP2;ratioP2;P2;SDS_P1;SDS_P2;PMS_P1;PMS_P2;Temp;Humidity;BMP_temperature;BMP_pressure;BME280_temperature;BME280_humidity;BME280_pressure;Samples;Min_cycle;Max_cycle;Signal;HPM_P1;HPM_P2
2023/12/22 00:01:11;;;;;;;18.63;3.20;;;;;;;5.69;100.00;100168.25;4883381;29;20086;-78
2023/12/22 00:03:37;;;;;;;14.65;2.92;;;;;;;5.67;100.00;100171.03;4887607;29;20044;-80
2023/12/22 00:06:02;;;;;;;20.27;3.60;;;;;;;5.68;100.00;100153.22;4870395;29;20061;-80
2023/12/22 00:08:28;;;;;;;16.48;3.42;;;;;;;5.66;100.00;100147.97;4886010;29;20489;-79
2023/12/22 00:10:53;;;;;;;18.67;3.25;;;;;;;5.66;100.00;100155.13;4885375;29;20028;-78
2023/12/22 00:13:18;;;;;;;17.20;3.83;;;;;;;5.69;100.00;100157.59;4870698;29;20032;-79
2023/12/22 00:15:44;;;;;;;20.42;3.60;;;;;;;5.71;100.00;100137.00;4886415;29;20040;-72
2023/12/22 00:18:09;;;;;;;18.08;3.60;;;;;;;5.75;100.00;100155.41;4876776;29;20033;-72
2023/12/22 00:20:35;;;;;;;21.23;4.35;;;;;;;5.78;100.00;100170.34;4877135;29;20037;-72
2023/12/22 00:23:00;;;;;;;19.33;3.15;;;;;;;5.82;100.00;100177.19;4875951;29;20496;-72
2023/12/22 00:25:25;;;;;;;17.58;3.67;;;;;;;5.84;100.00;100182.41;4875213;29;20037;-72
2023/12/22 00:27:51;;;;;;;16.10;3.60;;;;;;;5.82;100.00;100184.34;4872769;29;20056;-72
2023/12/22 00:30:16;;;;;;;16.88;2.92;;;;;;;5.78;100.00;100192.53;4877253;29;20068;-72
2023/12/22 00:32:41;;;;;;;18.02;3.22;;;;;;;5.76;100.00;100197.09;4875608;29;20037;-72
2023/12/22 00:35:07;;;;;;;17.45;3.60;;;;;;;5.75;100.00;100187.41;4873751;29;20032;-72
2023/12/22 00:37:32;;;;;;;15.50;3.63;;;;;;;5.75;100.00;100192.75;4860095;29;20060;-72
2023/12/22 00:39:57;;;;;;;17.75;3.40;;;;;;;5.76;100.00;100204.25;4876684;29;20035;-72
2023/12/22 00:42:23;;;;;;;16.77;3.88;;;;;;;5.75;100.00;100199.88;4859023;29;20029;-72
2023/12/22 00:44:48;;;;;;;28.95;4.05;;;;;;;5.77;100.00;100196.16;4876335;29;20037;-72
2023/12/22 00:47:13;;;;;;;24.00;4.45;;;;;;;5.79;100.00;100193.38;4875323;29;20049;-72
2023/12/22 00:49:38;;;;;;;13.43;3.65;;;;;;;5.83;100.00;100196.69;4875528;29;20592;-72
2023/12/22 00:52:04;;;;;;;23.67;4.22;;;;;;;5.84;100.00;100199.28;4877023;29;20421;-72
2023/12/22 00:54:31;;;;;;;16.60;4.13;;;;;;;5.86;100.00;100200.03;4875978;29;20068;-72
2023/12/22 00:56:57;;;;;;;14.60;3.22;;;;;;;5.86;100.00;100197.38;4876102;29;20025;-72
2023/12/22 00:59:22;;;;;;;20.15;3.75;;;;;;;5.86;100.00;100197.38;4876837;29;20040;-72
2023/12/22 01:01:48;;;;;;;23.48;4.95;;;;;;;5.87;100.00;100200.88;4859997;29;20064;-72
2023/12/22 01:04:13;;;;;;;17.13;3.58;;;;;;;5.87;100.00;100191.09;4876886;29;20036;-72
2023/12/22 01:06:39;;;;;;;24.13;4.47;;;;;;;5.93;100.00;100205.84;4876723;29;20037;-72
2023/12/22 01:09:04;;;;;;;18.48;3.45;;;;;;;5.97;100.00;100220.72;4874115;29;20041;-72
2023/12/22 01:11:29;;;;;;;15.82;3.63;;;;;;;6.04;100.00;100213.19;4873543;29;20033;-72
2023/12/22 01:13:55;;;;;;;18.33;4.20;;;;;;;6.10;100.00;100199.44;4857453;29;20025;-72
2023/12/22 01:16:22;;;;;;;15.00;3.00;;;;;;;6.19;100.00;100198.81;4873653;29;20029;-72
2023/12/22 01:18:47;;;;;;;14.32;3.40;;;;;;;6.25;100.00;100211.78;4875070;29;20043;-72
2023/12/22 01:21:12;;;;;;;14.38;3.55;;;;;;;6.34;100.00;100207.66;4876235;29;20029;-72
2023/12/22 01:23:38;;;;;;;18.65;3.92;;;;;;;6.38;100.00;100186.94;4856830;29;20029;-72
2023/12/22 01:26:03;;;;;;;22.35;4.15;;;;;;;6.43;100.00;100216.88;4875610;29;20048;-72
2023/12/22 01:28:28;;;;;;;19.40;3.75;;;;;;;6.45;100.00;100221.13;4876238;29;20067;-72
2023/12/22 01:30:54;;;;;;;17.05;3.92;;;;;;;6.48;100.00;100220.94;4858554;29;20037;-72
2023/12/22 01:33:19;;;;;;;18.50;3.85;;;;;;;6.56;100.00;100230.25;4875002;29;20028;-72
2023/12/22 01:35:44;;;;;;;18.40;4.45;;;;;;;6.55;100.00;100225.88;4876070;29;20124;-72
2023/12/22 01:38:09;;;;;;;18.15;3.92;;;;;;;6.57;100.00;100224.78;4871711;29;20025;-73
2023/12/22 01:40:35;;;;;;;18.77;4.15;;;;;;;6.56;100.00;100240.91;4875141;29;20514;-73
2023/12/22 01:43:01;;;;;;;14.05;3.38;;;;;;;6.57;100.00;100248.81;4873536;29;20033;-73
2023/12/22 01:45:26;;;;;;;21.17;4.40;;;;;;;6.59;100.00;100233.56;4875869;29;20039;-73
2023/12/22 01:47:52;;;;;;;17.10;3.85;;;;;;;6.57;100.00;100224.78;4858206;29;20049;-72
2023/12/22 01:50:17;;;;;;;22.55;3.83;;;;;;;6.57;100.00;100239.97;4859368;29;20356;-73
2023/12/22 01:52:44;;;;;;;20.52;3.70;;;;;;;6.54;100.00;100234.84;4874525;29;20040;-73
2023/12/22 01:55:13;;;;;;;20.45;4.35;;;;;;;6.52;100.00;100244.78;4875574;29;20135;-73
2023/12/22 01:57:40;;;;;;;19.20;3.88;;;;;;;6.52;100.00;100245.63;4858903;29;20029;-72
2023/12/22 02:00:06;;;;;;;18.88;4.30;;;;;;;6.54;100.00;100251.69;4873416;29;20036;-72
2023/12/22 02:02:32;;;;;;;20.83;4.22;;;;;;;6.56;100.00;100263.16;4858410;29;20029;-72
2023/12/22 02:04:59;;;;;;;22.42;4.00;;;;;;;6.59;100.00;100252.28;4873568;29;20039;-72
2023/12/22 02:07:24;;;;;;;17.10;3.92;;;;;;;6.62;100.00;100256.56;4858120;29;20067;-72
2023/12/22 02:09:50;;;;;;;19.70;4.05;;;;;;;6.62;100.00;100262.75;4872574;29;20068;-72
2023/12/22 02:12:15;;;;;;;20.00;4.40;;;;;;;6.63;100.00;100256.44;4872810;29;20037;-72
2023/12/22 02:14:40;;;;;;;18.75;3.67;;;;;;;6.65;100.00;100264.34;4873810;29;20069;-72
2023/12/22 02:17:14;;;;;;;11.70;3.15;;;;;;;6.63;100.00;100237.75;4874440;29;20124;-71
2023/12/22 02:19:43;;;;;;;15.52;3.50;;;;;;;6.61;100.00;100230.81;4873934;29;20044;-72
2023/12/22 02:22:11;;;;;;;21.27;4.20;;;;;;;6.59;99.73;100244.25;4857115;29;20033;-72
2023/12/22 02:24:37;;;;;;;17.08;3.72;;;;;;;6.59;98.37;100241.59;4873327;29;20104;-72
2023/12/22 02:27:15;;;;;;;17.65;3.90;;;;;;;6.62;96.39;100246.72;4875098;29;20044;-72
2023/12/22 02:29:48;;;;;;;19.15;3.83;;;;;;;6.65;95.76;100251.00;4875200;29;20033;-72
2023/12/22 02:32:23;;;;;;;16.20;3.85;;;;;;;6.68;93.44;100250.81;4872815;29;20397;-72
2023/12/22 02:34:52;;;;;;;16.70;3.55;;;;;;;6.72;93.45;100259.44;4854199;29;20064;-72
2023/12/22 02:37:21;;;;;;;23.02;3.92;;;;;;;6.72;97.81;100296.84;4873251;29;20043;-72
2023/12/22 02:39:47;;;;;;;14.98;4.05;;;;;;;6.64;97.71;100295.53;4869693;29;20037;-67
2023/12/22 02:42:13;;;;;;;19.00;3.17;;;;;;;6.46;100.00;100302.94;4876438;29;20036;-67
2023/12/22 02:44:38;;;;;;;17.50;3.45;;;;;;;6.30;100.00;100273.72;4876179;29;20441;-67
2023/12/22 02:47:03;;;;;;;17.15;3.65;;;;;;;6.20;100.00;100275.25;4872677;29;20151;-67
2023/12/22 02:49:29;;;;;;;15.65;3.85;;;;;;;6.12;100.00;100264.25;4874840;29;20405;-67
2023/12/22 02:51:54;;;;;;;18.83;3.42;;;;;;;6.05;100.00;100257.59;4873886;29;20029;-67
2023/12/22 02:54:19;;;;;;;19.23;3.90;;;;;;;6.00;100.00;100262.34;4876258;29;20359;-67
2023/12/22 02:56:48;;;;;;;16.38;2.83;;;;;;;5.94;100.00;100256.44;4875311;29;20112;-67
2023/12/22 02:59:13;;;;;;;17.63;3.53;;;;;;;5.89;100.00;100249.66;4870635;29;20036;-67
2023/12/22 03:01:39;;;;;;;21.65;4.15;;;;;;;5.85;100.00;100243.66;4874926;29;20037;-67
2023/12/22 03:04:04;;;;;;;15.63;3.25;;;;;;;5.85;100.00;100242.81;4876156;29;20049;-67
2023/12/22 03:06:29;;;;;;;17.40;3.38;;;;;;;5.84;100.00;100241.97;4875715;29;20036;-67
2023/12/22 03:08:55;;;;;;;24.27;4.82;;;;;;;5.85;100.00;100237.47;4874592;29;20036;-68
2023/12/22 03:11:20;;;;;;;17.70;4.28;;;;;;;5.88;100.00;100235.44;4871341;29;20037;-67
2023/12/22 03:13:45;;;;;;;17.67;4.28;;;;;;;5.92;100.00;100228.97;4858671;29;20076;-67
2023/12/22 03:16:11;;;;;;;22.90;5.53;;;;;;;5.95;100.00;100234.13;4858144;29;20697;-68
2023/12/22 03:18:39;;;;;;;15.93;3.90;;;;;;;5.97;100.00;100226.03;4875276;29;20497;-66
2023/12/22 03:21:05;;;;;;;19.55;4.43;;;;;;;5.99;100.00;100239.28;4873408;29;20029;-67
2023/12/22 03:23:30;;;;;;;18.45;4.03;;;;;;;6.00;100.00;100230.34;4848190;29;20029;-67
2023/12/22 03:25:55;;;;;;;26.15;4.97;;;;;;;6.01;100.00;100227.56;4871805;29;20084;-67
2023/12/22 03:28:21;;;;;;;25.17;5.00;;;;;;;6.03;100.00;100212.34;4874248;29;20072;-67
2023/12/22 03:30:46;;;;;;;24.40;4.72;;;;;;;6.05;100.00;100222.91;4858131;29;20064;-68
2023/12/22 03:33:11;;;;;;;20.98;3.97;;;;;;;6.05;100.00;100222.91;4873483;29;20037;-68
2023/12/22 03:35:36;;;;;;;20.80;4.60;;;;;;;6.07;100.00;100226.31;4874434;29;20032;-67
2023/12/22 03:38:02;;;;;;;20.83;4.40;;;;;;;6.10;100.00;100226.13;4856768;29;20081;-68
2023/12/22 03:40:27;;;;;;;20.88;4.18;;;;;;;6.14;100.00;100226.78;4857094;29;20486;-68
2023/12/22 03:42:52;;;;;;;16.70;3.58;;;;;;;6.20;100.00;100208.56;4873586;29;20045;-67
2023/12/22 03:45:18;;;;;;;17.27;4.03;;;;;;;6.26;100.00;100231.31;4872239;29;20061;-67
2023/12/22 03:47:43;;;;;;;17.10;3.72;;;;;;;6.33;100.00;100231.78;4872899;29;20053;-69
2023/12/22 03:50:09;;;;;;;22.58;3.60;;;;;;;6.36;100.00;100245.78;4876922;29;20029;-69
2023/12/22 03:52:34;;;;;;;17.17;3.80;;;;;;;6.41;100.00;100245.47;4877543;29;20474;-70
2023/12/22 03:55:00;;;;;;;15.70;3.47;;;;;;;6.47;100.00;100237.03;4873059;29;20347;-70
2023/12/22 03:57:25;;;;;;;19.67;3.45;;;;;;;6.53;100.00;100225.09;4878108;29;20394;-69
2023/12/22 03:59:50;;;;;;;16.92;3.85;;;;;;;6.57;100.00;100243.47;4876855;29;20033;-70
2023/12/22 04:02:15;;;;;;;20.88;4.55;;;;;;;6.62;100.00;100228.03;4874159;29;20098;-70
2023/12/22 04:04:41;;;;;;;17.15;3.33;;;;;;;6.67;100.00;100262.44;4857998;29;20495;-69
2023/12/22 04:07:06;;;;;;;16.88;4.22;;;;;;;6.72;100.00;100243.44;4873446;29;20291;-71
2023/12/22 04:09:31;;;;;;;19.45;3.58;;;;;;;6.76;100.00;100251.13;4873230;29;20057;-69
2023/12/22 04:11:57;;;;;;;15.07;3.30;;;;;;;6.80;100.00;100254.47;4871745;29;20037;-70
2023/12/22 04:14:22;;;;;;;22.42;3.90;;;;;;;6.82;100.00;100239.19;4877276;29;20029;-70
2023/12/22 04:16:47;;;;;;;13.68;3.33;;;;;;;6.83;100.00;100254.25;4859368;29;20029;-70
2023/12/22 04:19:13;;;;;;;14.88;3.35;;;;;;;6.85;100.00;100256.81;4874315;29;20035;-69
2023/12/22 04:21:38;;;;;;;17.90;3.72;;;;;;;6.87;100.00;100260.22;4859411;29;20104;-69
2023/12/22 04:24:04;;;;;;;24.10;3.47;;;;;;;6.87;100.00;100255.75;4873454;29;20029;-69
2023/12/22 04:26:29;;;;;;;21.48;4.03;;;;;;;6.87;100.00;100258.44;4876721;29;20477;-70
2023/12/22 04:28:55;;;;;;;24.50;3.97;;;;;;;6.90;100.00;100262.72;4859363;29;20068;-70
2023/12/22 04:31:20;;;;;;;17.73;3.65;;;;;;;6.94;100.00;100270.41;4877133;29;20033;-69
2023/12/22 04:33:45;;;;;;;19.23;3.63;;;;;;;6.96;100.00;100273.00;4875701;29;20037;-70
2023/12/22 04:36:10;;;;;;;22.88;3.67;;;;;;;6.99;100.00;100280.78;4873813;29;20558;-69
2023/12/22 04:38:36;;;;;;;23.42;4.75;;;;;;;6.99;100.00;100278.97;4857844;29;20029;-70
2023/12/22 04:41:01;;;;;;;18.15;3.47;;;;;;;7.00;100.00;100272.66;4875817;29;20036;-70
2023/12/22 04:43:26;;;;;;;19.00;3.45;;;;;;;7.01;100.00;100284.19;4877075;29;20111;-69
2023/12/22 04:45:52;;;;;;;16.48;3.55;;;;;;;7.00;100.00;100291.38;4876806;29;20064;-69
2023/12/22 04:48:17;;;;;;;17.40;3.30;;;;;;;7.03;99.86;100281.44;4876870;29;20096;-69
2023/12/22 04:50:42;;;;;;;15.32;3.35;;;;;;;7.04;100.00;100283.16;4876918;29;20029;-69
2023/12/22 04:53:08;;;;;;;15.10;3.05;;;;;;;7.03;100.00;100279.63;4871380;29;20065;-69
2023/12/22 04:55:33;;;;;;;20.23;3.55;;;;;;;7.03;100.00;100276.09;4858874;29;20076;-70
2023/12/22 04:57:58;;;;;;;20.75;3.88;;;;;;;7.04;100.00;100269.78;4876973;29;20477;-70
2023/12/22 05:00:24;;;;;;;15.82;3.50;;;;;;;7.05;100.00;100269.69;4875173;29;20088;-70
2023/12/22 05:02:49;;;;;;;13.38;3.17;;;;;;;7.06;100.00;100282.09;4875560;29;20397;-70
2023/12/22 05:05:14;;;;;;;18.67;4.70;;;;;;;7.09;100.00;100289.06;4875452;29;20509;-70
2023/12/22 05:07:40;;;;;;;19.17;3.63;;;;;;;7.10;100.00;100286.28;4876157;29;20033;-69
2023/12/22 05:10:06;;;;;;;16.25;3.17;;;;;;;7.10;100.00;100299.63;4859149;29;20029;-70
2023/12/22 05:12:31;;;;;;;18.42;3.97;;;;;;;7.13;100.00;100290.53;4858671;29;20025;-70
2023/12/22 05:14:56;;;;;;;18.90;4.03;;;;;;;7.14;100.00;100287.75;4859254;29;20036;-69
2023/12/22 05:17:22;;;;;;;21.50;4.45;;;;;;;7.14;100.00;100273.53;4875161;29;20392;-69
2023/12/22 05:19:47;;;;;;;18.70;3.45;;;;;;;7.13;100.00;100258.47;4859713;29;20084;-70
2023/12/22 05:22:12;;;;;;;19.75;4.03;;;;;;;7.13;100.00;100285.19;4875503;29;20316;-69
2023/12/22 05:24:38;;;;;;;19.13;4.57;;;;;;;7.14;100.00;100294.91;4873277;29;20409;-70
2023/12/22 05:27:04;;;;;;;28.80;6.32;;;;;;;7.17;100.00;100292.03;4873150;29;20453;-70
2023/12/22 05:29:29;;;;;;;31.40;5.40;;;;;;;7.18;100.00;100294.59;4873748;29;20021;-70
2023/12/22 05:31:54;;;;;;;22.60;4.95;;;;;;;7.18;100.00;100294.59;4875648;29;20032;-69
2023/12/22 05:34:19;;;;;;;25.60;5.38;;;;;;;7.20;100.00;100285.63;4873278;29;20053;-70
2023/12/22 05:36:45;;;;;;;18.20;4.22;;;;;;;7.20;100.00;100286.47;4858372;29;20017;-69
2023/12/22 05:39:10;;;;;;;22.27;4.65;;;;;;;7.22;100.00;100281.91;4855112;29;20029;-69
2023/12/22 05:41:38;;;;;;;22.02;5.45;;;;;;;7.22;100.00;100284.56;4875007;29;20032;-69
2023/12/22 05:44:05;;;;;;;19.42;5.13;;;;;;;7.18;100.00;100281.25;4875981;29;20112;-69
2023/12/22 05:46:35;;;;;;;25.00;5.82;;;;;;;7.16;100.00;100277.00;4873411;29;20184;-70
2023/12/22 05:49:00;;;;;;;22.60;4.95;;;;;;;7.14;100.00;100270.88;4871993;29;20493;-70
2023/12/22 05:51:25;;;;;;;28.60;5.95;;;;;;;7.11;100.00;100268.41;4872311;29;20032;-69
2023/12/22 05:53:53;;;;;;;24.90;5.65;;;;;;;7.11;100.00;100295.13;4857090;29;20060;-69
2023/12/22 05:56:20;;;;;;;23.90;5.38;;;;;;;7.10;100.00;100291.63;4872142;29;20397;-69
2023/12/22 05:58:45;;;;;;;25.85;6.10;;;;;;;7.09;100.00;100275.69;4858590;29;20053;-69
2023/12/22 06:01:15;;;;;;;25.08;5.70;;;;;;;7.09;100.00;100273.03;4875424;29;20188;-69
2023/12/22 06:03:41;;;;;;;26.73;6.28;;;;;;;7.09;100.00;100275.69;4875067;29;20033;-69
2023/12/22 06:06:06;;;;;;;21.23;5.10;;;;;;;7.09;100.00;100265.00;4872966;29;20040;-70
2023/12/22 06:08:31;;;;;;;22.75;5.40;;;;;;;7.10;100.00;100269.38;4871875;29;20498;-77
2023/12/22 06:10:56;;;;;;;33.22;7.18;;;;;;;7.10;100.00;100266.69;4857199;29;20038;-80
2023/12/22 06:13:22;;;;;;;25.08;5.35;;;;;;;7.10;100.00;100272.03;4874240;29;20340;-79
2023/12/22 06:15:47;;;;;;;24.00;6.47;;;;;;;7.12;100.00;100254.09;4872515;29;20396;-80
2023/12/22 06:18:12;;;;;;;31.98;6.80;;;;;;;7.14;100.00;100254.84;4856680;29;20539;-78
2023/12/22 06:20:38;;;;;;;26.52;5.88;;;;;;;7.18;100.00;100267.03;4874429;29;20033;-79
2023/12/22 06:23:04;;;;;;;30.15;7.75;;;;;;;7.22;100.00;100260.53;4857843;29;20540;-77
2023/12/22 06:25:29;;;;;;;29.58;6.20;;;;;;;7.25;100.00;100254.97;4874267;29;20036;-79
2023/12/22 06:27:54;;;;;;;26.80;6.50;;;;;;;7.30;100.00;100260.84;4875308;29;20021;-78
2023/12/22 06:30:20;;;;;;;33.92;6.63;;;;;;;7.31;100.00;100261.72;4876289;29;20610;-79
2023/12/22 06:32:45;;;;;;;26.17;6.57;;;;;;;7.33;100.00;100268.63;4857739;29;20031;-79
2023/12/22 06:35:10;;;;;;;28.17;7.10;;;;;;;7.37;100.00;100271.13;4856996;29;20039;-77
2023/12/22 06:37:36;;;;;;;27.90;7.00;;;;;;;7.38;100.00;100267.47;4875077;29;20033;-79
2023/12/22 06:40:01;;;;;;;27.35;6.88;;;;;;;7.40;100.00;100278.94;4871406;29;20033;-79
2023/12/22 06:42:26;;;;;;;30.60;6.78;;;;;;;7.40;100.00;100290.47;4858315;29;20041;-79
2023/12/22 06:44:52;;;;;;;29.20;7.03;;;;;;;7.43;100.00;100292.09;4873598;29;20035;-78
2023/12/22 06:47:17;;;;;;;29.35;7.72;;;;;;;7.43;100.00;100294.75;4867628;29;20174;-76
2023/12/22 06:49:42;;;;;;;33.25;7.65;;;;;;;7.46;100.00;100283.84;4856188;29;20056;-79
2023/12/22 06:52:07;;;;;;;28.98;6.47;;;;;;;7.47;100.00;100285.56;4858452;29;20512;-78
2023/12/22 06:54:34;;;;;;;32.72;7.47;;;;;;;7.47;100.00;100289.09;4870441;29;20474;-80
2023/12/22 06:57:00;;;;;;;34.42;8.00;;;;;;;7.48;100.00;100276.56;4858133;29;20025;-78
2023/12/22 06:59:25;;;;;;;32.55;7.53;;;;;;;7.50;100.00;100280.00;4857060;29;20116;-79
2023/12/22 07:01:50;;;;;;;36.15;7.93;;;;;;;7.52;100.00;100286.09;4874691;29;20169;-77
2023/12/22 07:04:16;;;;;;;24.90;6.63;;;;;;;7.52;100.00;100283.41;4856377;29;20045;-78
2023/12/22 07:06:41;;;;;;;27.40;7.32;;;;;;;7.53;100.00;100274.44;4874102;29;20056;-79
2023/12/22 07:09:16;;;;;;;40.65;8.82;;;;;;;7.56;100.00;100279.56;4857398;29;20411;-78
2023/12/22 07:11:43;;;;;;;31.15;7.97;;;;;;;7.58;100.00;100295.50;4869913;29;20356;-78
2023/12/22 07:14:09;;;;;;;30.13;7.72;;;;;;;7.59;100.00;100276.69;4857023;29;20021;-77
2023/12/22 07:16:35;;;;;;;25.83;7.03;;;;;;;7.61;100.00;100285.44;4857120;29;20409;-79
2023/12/22 07:19:01;;;;;;;26.15;6.40;;;;;;;7.61;100.00;100271.22;4856850;29;20040;-68
2023/12/22 07:21:26;;;;;;;34.30;7.60;;;;;;;7.63;100.00;100277.34;4875982;29;20024;-69
2023/12/22 07:23:52;;;;;;;30.27;7.38;;;;;;;7.64;100.00;100273.66;4858210;29;20039;-68
2023/12/22 07:26:17;;;;;;;34.83;8.05;;;;;;;7.64;100.00;100289.72;4871757;29;20120;-69
2023/12/22 07:28:42;;;;;;;29.88;7.50;;;;;;;7.64;100.00;100281.69;4859634;29;20409;-69
2023/12/22 07:31:07;;;;;;;28.33;7.43;;;;;;;7.65;100.00;100260.19;4879879;29;20049;-69
2023/12/22 07:33:33;;;;;;;28.10;6.55;;;;;;;7.66;100.00;100259.22;4856974;29;20044;-67
2023/12/22 07:35:58;;;;;;;32.42;6.82;;;;;;;7.69;100.00;100271.53;4870869;29;20116;-68
2023/12/22 07:38:23;;;;;;;32.15;6.85;;;;;;;7.70;100.00;100268.75;4876044;29;20062;-69
2023/12/22 07:40:49;;;;;;;27.50;6.95;;;;;;;7.72;100.00;100270.44;4859131;29;20127;-68
2023/12/22 07:43:14;;;;;;;28.52;5.85;;;;;;;7.72;100.00;100271.31;4874452;29;20057;-68
2023/12/22 07:45:40;;;;;;;32.65;7.03;;;;;;;7.72;100.00;100271.31;4856741;29;20029;-69
2023/12/22 07:48:06;;;;;;;33.70;6.90;;;;;;;7.72;100.00;100260.63;4876480;29;20041;-70
2023/12/22 07:50:32;;;;;;;33.70;6.95;;;;;;;7.73;100.00;100264.16;4857429;29;20387;-71
2023/12/22 07:52:58;;;;;;;28.13;6.25;;;;;;;7.73;100.00;100262.34;4877758;29;20036;-69
2023/12/22 07:55:23;;;;;;;30.45;6.80;;;;;;;7.74;100.00;100263.19;4877148;29;20470;-71
2023/12/22 07:57:49;;;;;;;23.10;6.53;;;;;;;7.76;100.00;100269.28;4863169;29;20081;-71
2023/12/22 08:00:14;;;;;;;27.05;6.65;;;;;;;7.77;100.00;100262.97;4884110;29;20033;-72
2023/12/22 08:02:40;;;;;;;28.95;6.50;;;;;;;7.78;100.00;100268.22;4864686;29;20043;-69
2023/12/22 08:05:05;;;;;;;34.53;7.32;;;;;;;7.79;100.00;100287.78;4865847;29;20032;-68
2023/12/22 08:07:31;;;;;;;23.40;5.68;;;;;;;7.81;100.00;100275.16;4880176;29;20120;-72
2023/12/22 08:09:56;;;;;;;26.05;5.53;;;;;;;7.82;100.00;100280.41;4874961;29;20039;-71
2023/12/22 08:12:22;;;;;;;25.63;5.95;;;;;;;7.84;100.00;100282.97;4856427;29;20024;-71
2023/12/22 08:14:48;;;;;;;23.77;5.43;;;;;;;7.84;100.00;100274.94;4878459;29;20033;-72
2023/12/22 08:17:13;;;;;;;34.08;6.60;;;;;;;7.84;100.00;100275.78;4858632;29;20033;-70
2023/12/22 08:19:39;;;;;;;18.88;4.82;;;;;;;7.85;100.00;100279.34;4876902;29;20041;-70
2023/12/22 08:22:04;;;;;;;24.08;5.90;;;;;;;7.84;100.00;100264.25;4876885;29;20040;-72
2023/12/22 08:24:29;;;;;;;30.52;4.97;;;;;;;7.86;100.00;100267.66;4860193;29;20029;-71
2023/12/22 08:26:55;;;;;;;22.75;5.30;;;;;;;7.87;100.00;100264.88;4857104;29;20036;-71
2023/12/22 08:29:20;;;;;;;23.17;5.50;;;;;;;7.88;100.00;100269.25;4875917;29;20031;-73
2023/12/22 08:31:45;;;;;;;24.17;5.43;;;;;;;7.92;100.00;100266.38;4876497;29;20059;-74
2023/12/22 08:34:11;;;;;;;19.77;4.82;;;;;;;7.93;100.00;100268.94;4859442;29;20112;-72
2023/12/22 08:36:36;;;;;;;20.38;3.90;;;;;;;7.93;100.00;100271.59;4858737;29;20037;-72
2023/12/22 08:39:02;;;;;;;20.25;4.32;;;;;;;7.92;100.00;100267.25;4858264;29;20052;-73
2023/12/22 08:41:27;;;;;;;22.80;4.15;;;;;;;7.94;100.00;100269.81;4857698;29;20849;-73
2023/12/22 08:43:52;;;;;;;23.05;4.68;;;;;;;7.94;100.00;100261.78;4876164;29;20065;-73
2023/12/22 08:46:18;;;;;;;18.23;4.15;;;;;;;7.95;100.00;100256.31;4874545;29;20123;-73
2023/12/22 08:48:43;;;;;;;16.98;4.18;;;;;;;7.97;100.00;100262.41;4855102;29;20036;-73
2023/12/22 08:51:08;;;;;;;16.40;4.53;;;;;;;7.97;100.00;100275.78;4874516;29;20029;-74
2023/12/22 08:53:37;;;;;;;17.10;3.30;;;;;;;7.97;100.00;100265.06;4869483;29;20068;-73
2023/12/22 08:56:03;;;;;;;14.48;3.97;;;;;;;7.97;100.00;100269.59;4874015;29;20037;-73
2023/12/22 08:58:29;;;;;;;20.02;3.75;;;;;;;7.97;100.00;100264.22;4873925;29;20024;-75
2023/12/22 09:00:55;;;;;;;11.65;3.20;;;;;;;7.94;100.00;100254.59;4872015;29;20433;-73
2023/12/22 09:03:20;;;;;;;10.65;2.92;;;;;;;7.92;100.00;100256.53;4859588;29;20029;-72
2023/12/22 09:05:46;;;;;;;13.52;3.75;;;;;;;7.91;100.00;100256.66;4874118;29;20536;-72
2023/12/22 09:08:12;;;;;;;15.55;3.55;;;;;;;7.93;100.00;100252.03;4872234;29;20033;-76
2023/12/22 09:10:37;;;;;;;12.88;3.35;;;;;;;7.93;100.00;100252.88;4856629;29;20036;-73
2023/12/22 09:13:03;;;;;;;19.02;3.75;;;;;;;7.95;100.00;100250.97;4858500;29;20025;-73
2023/12/22 09:15:28;;;;;;;9.70;2.60;;;;;;;7.98;100.00;100244.50;4874983;29;20033;-74
2023/12/22 09:17:55;;;;;;;15.38;2.92;;;;;;;7.99;100.00;100244.41;4870817;29;20401;-74
2023/12/22 09:20:21;;;;;;;12.35;3.10;;;;;;;7.99;100.00;100255.09;4855093;29;20037;-74
2023/12/22 09:22:46;;;;;;;12.73;3.05;;;;;;;8.02;100.00;100246.00;4855969;29;20048;-74
2023/12/22 09:25:11;;;;;;;9.50;2.20;;;;;;;8.03;100.00;100256.59;4857075;29;20088;-74
2023/12/22 09:27:37;;;;;;;9.65;2.47;;;;;;;8.06;100.00;100255.53;4870718;29;20066;-74
2023/12/22 09:30:06;;;;;;;6.47;2.13;;;;;;;8.08;100.00;100247.38;4871617;29;20168;-74
2023/12/22 09:32:31;;;;;;;10.55;2.42;;;;;;;8.11;100.00;100247.16;4871758;29;20025;-76
2023/12/22 09:34:58;;;;;;;12.73;2.47;;;;;;;8.13;100.00;100250.59;4856871;29;20036;-74
2023/12/22 09:37:24;;;;;;;8.95;2.17;;;;;;;8.17;100.00;100244.03;4872334;29;20460;-74
2023/12/22 09:39:49;;;;;;;7.55;2.10;;;;;;;8.20;100.00;100225.94;4876048;29;20028;-72
2023/12/22 09:42:16;;;;;;;8.25;2.17;;;;;;;8.23;100.00;100227.53;4859708;29;20029;-72
2023/12/22 09:44:42;;;;;;;9.77;2.25;;;;;;;8.26;100.00;100235.34;4871239;29;20040;-71
2023/12/22 09:47:11;;;;;;;10.65;2.33;;;;;;;8.30;100.00;100227.94;4858832;29;20048;-72
2023/12/22 09:49:38;;;;;;;10.52;2.35;;;;;;;8.32;100.00;100226.84;4874439;29;20527;-72
2023/12/22 09:52:06;;;;;;;7.88;1.75;;;;;;;8.36;100.00;100236.38;4858180;29;20033;-69
2023/12/22 09:54:32;;;;;;;12.63;2.40;;;;;;;8.39;100.00;100236.16;4872887;29;20043;-70
2023/12/22 09:56:59;;;;;;;8.18;2.17;;;;;;;8.42;100.00;100236.88;4873422;29;20462;-69
2023/12/22 09:59:25;;;;;;;13.23;2.88;;;;;;;8.43;100.00;100222.53;4857753;29;20511;-70
2023/12/22 10:01:52;;;;;;;9.95;2.10;;;;;;;8.46;100.00;100230.34;4874420;29;20393;-71
2023/12/22 10:04:17;;;;;;;9.88;2.65;;;;;;;8.48;100.00;100223.09;4871210;29;20024;-70
2023/12/22 10:06:46;;;;;;;12.23;2.42;;;;;;;8.52;100.00;100219.19;4870778;29;20492;-69
2023/12/22 10:09:14;;;;;;;12.90;2.42;;;;;;;8.57;100.00;100230.41;4869753;29;20532;-70
2023/12/22 10:11:43;;;;;;;9.02;2.30;;;;;;;8.64;100.00;100228.13;4872288;29;20025;-70
2023/12/22 10:14:09;;;;;;;12.38;2.25;;;;;;;8.70;100.00;100236.56;4853268;29;20741;-70
2023/12/22 10:16:36;;;;;;;9.27;2.05;;;;;;;8.74;100.00;100221.97;4851986;29;20029;-71
2023/12/22 10:19:01;;;;;;;11.63;2.50;;;;;;;8.78;100.00;100235.97;4870548;29;20059;-71
2023/12/22 10:21:27;;;;;;;9.20;2.17;;;;;;;8.81;100.00;100238.41;4871835;29;20033;-71
2023/12/22 10:23:52;;;;;;;6.78;1.95;;;;;;;8.82;100.00;100245.50;4868778;29;20084;-72
2023/12/22 10:26:17;;;;;;;17.52;3.03;;;;;;;8.87;100.00;100231.75;4867944;29;20028;-71
2023/12/22 10:28:43;;;;;;;14.63;2.30;;;;;;;8.87;100.00;100231.75;4866439;29;20100;-71
2023/12/22 10:31:09;;;;;;;7.38;2.33;;;;;;;8.89;100.00;100225.31;4851393;29;20048;-73
2023/12/22 10:33:34;;;;;;;7.30;2.40;;;;;;;8.90;100.00;100242.22;4873726;29;20025;-70
2023/12/22 10:35:59;;;;;;;14.55;2.88;;;;;;;8.92;100.00;100235.78;4875493;29;20366;-72
2023/12/22 10:38:27;;;;;;;9.38;2.45;;;;;;;8.94;100.00;100238.34;4875880;29;20021;-71
2023/12/22 10:40:52;;;;;;;14.65;2.58;;;;;;;8.96;100.00;100241.78;4860460;29;20032;-70
2023/12/22 10:43:18;;;;;;;8.90;2.25;;;;;;;8.97;100.00;100239.94;4875322;29;20489;-74
2023/12/22 10:45:43;;;;;;;10.60;2.50;;;;;;;8.98;100.00;100253.22;4875264;29;20033;-70
2023/12/22 10:48:08;;;;;;;14.18;2.47;;;;;;;9.00;100.00;100248.59;4872434;29;20987;-74
2023/12/22 10:50:34;;;;;;;9.70;2.67;;;;;;;9.03;100.00;100253.72;4856757;29;20037;-74
2023/12/22 10:53:01;;;;;;;8.90;1.75;;;;;;;9.03;100.00;100248.34;4873897;29;20032;-74
2023/12/22 10:55:26;;;;;;;11.45;2.15;;;;;;;9.05;100.00;100256.31;4867809;29;20390;-74
2023/12/22 10:57:52;;;;;;;8.48;2.10;;;;;;;9.06;100.00;100250.81;4875411;29;20028;-74
2023/12/22 11:00:20;;;;;;;8.77;2.85;;;;;;;9.08;100.00;100248.03;4877509;29;20032;-73
2023/12/22 11:02:50;;;;;;;9.20;2.38;;;;;;;9.12;100.00;100236.06;4877669;29;20290;-74
2023/12/22 11:05:20;;;;;;;10.90;2.38;;;;;;;9.15;100.00;100245.72;4857424;29;20136;-74
2023/12/22 11:07:49;;;;;;;13.32;2.97;;;;;;;9.16;100.00;100229.50;4876878;29;20029;-74
2023/12/22 11:10:20;;;;;;;12.70;2.33;;;;;;;9.17;100.00;100238.41;4877618;29;20209;-75
2023/12/22 11:12:47;;;;;;;8.18;2.33;;;;;;;9.20;100.00;100244.38;4877937;29;20064;-74